createdAt,value
2022-12-14T00:01:18.672Z,2.59
2022-12-14T00:03:46.329Z,2.60
2022-12-14T00:06:18.438Z,2.60
2022-12-14T00:08:46.605Z,2.59
2022-12-14T00:11:16.760Z,2.59
2022-12-14T00:13:43.898Z,2.60
2022-12-14T00:16:17.708Z,2.61
2022-12-14T00:18:48.624Z,2.63
2022-12-14T00:21:15.559Z,2.65
2022-12-14T00:23:45.092Z,2.65
2022-12-14T00:26:44.770Z,2.64
2022-12-14T00:29:11.806Z,2.62
2022-12-14T00:31:38.350Z,2.60
2022-12-14T00:34:04.885Z,2.57
2022-12-14T00:36:31.762Z,2.53
2022-12-14T00:38:58.601Z,2.50
2022-12-14T00:41:25.055Z,2.49
2022-12-14T00:43:51.619Z,2.46
2022-12-14T00:46:18.450Z,2.46
2022-12-14T00:48:45.472Z,2.48
2022-12-14T00:51:14.617Z,2.48
2022-12-14T00:53:41.686Z,2.48
2022-12-14T00:56:08.381Z,2.48
2022-12-14T00:58:35.609Z,2.47
2022-12-14T01:01:05.992Z,2.45
2022-12-14T01:03:33.798Z,2.43
2022-12-14T01:06:00.626Z,2.41
2022-12-14T01:08:35.072Z,2.39
2022-12-14T01:11:09.276Z,2.36
2022-12-14T01:13:37.335Z,2.32
2022-12-14T01:16:09.665Z,2.30
2022-12-14T01:18:37.880Z,2.29
2022-12-14T01:21:20.043Z,2.27
2022-12-14T01:23:48.013Z,2.26
2022-12-14T01:26:16.529Z,2.26
2022-12-14T01:28:43.700Z,2.26
2022-12-14T01:31:14.281Z,2.25
2022-12-14T01:33:41.423Z,2.26
2022-12-14T01:36:10.508Z,2.23
2022-12-14T01:38:37.419Z,2.23
2022-12-14T01:41:04.889Z,2.22
2022-12-14T01:43:50.914Z,2.20
2022-12-14T01:46:38.695Z,2.18
2022-12-14T01:49:14.109Z,2.16
2022-12-14T01:51:43.850Z,2.14
2022-12-14T01:54:13.181Z,2.17
2022-12-14T01:56:42.993Z,2.17
2022-12-14T01:59:18.717Z,2.17
2022-12-14T02:01:46.226Z,2.17
2022-12-14T02:04:16.964Z,2.16
2022-12-14T02:06:45.252Z,2.15
2022-12-14T02:09:18.101Z,2.14
2022-12-14T02:12:10.588Z,2.15
2022-12-14T02:14:37.419Z,2.16
2022-12-14T02:17:04.608Z,2.15
2022-12-14T02:19:31.074Z,2.15
2022-12-14T02:22:25.063Z,2.13
2022-12-14T02:25:09.875Z,2.12
2022-12-14T02:28:03.677Z,2.09
2022-12-14T02:30:35.535Z,2.10
2022-12-14T02:33:31.246Z,2.10
2022-12-14T02:36:04.354Z,2.12
2022-12-14T02:38:44.730Z,2.11
2022-12-14T02:41:16.977Z,2.13
2022-12-14T02:43:53.759Z,2.13
2022-12-14T02:46:32.827Z,2.14
2022-12-14T02:49:10.368Z,2.13
2022-12-14T02:51:58.272Z,2.12
2022-12-14T02:54:53.499Z,2.13
2022-12-14T02:57:26.753Z,2.13
2022-12-14T02:59:57.136Z,2.12
2022-12-14T03:02:25.253Z,2.10
2022-12-14T03:04:52.256Z,2.09
2022-12-14T03:07:33.807Z,2.09
2022-12-14T03:10:32.568Z,2.07
2022-12-14T03:13:15.471Z,2.10
2022-12-14T03:15:45.900Z,2.10
2022-12-14T03:18:15.945Z,2.10
2022-12-14T03:20:45.951Z,2.09
2022-12-14T03:23:16.825Z,2.10
2022-12-14T03:25:50.349Z,2.10
2022-12-14T03:28:24.096Z,2.09
2022-12-14T03:31:01.149Z,2.07
2022-12-14T03:33:31.897Z,2.07
2022-12-14T03:36:06.850Z,2.07
2022-12-14T03:38:41.638Z,2.08
2022-12-14T03:41:29.078Z,2.09
2022-12-14T03:44:29.590Z,2.09
2022-12-14T03:47:04.064Z,2.08
2022-12-14T03:49:36.565Z,2.07
2022-12-14T03:52:35.593Z,2.06
2022-12-14T03:55:11.099Z,2.06
2022-12-14T03:57:53.801Z,2.06
2022-12-14T04:00:23.582Z,2.04
2022-12-14T04:03:21.911Z,2.05
2022-12-14T04:06:05.772Z,2.07
2022-12-14T04:08:47.385Z,2.07
2022-12-14T04:11:35.329Z,2.08
2022-12-14T04:14:48.496Z,2.07
2022-12-14T04:17:41.581Z,2.07
2022-12-14T04:20:13.117Z,2.05
2022-12-14T04:22:46.187Z,2.04
2022-12-14T04:25:37.501Z,2.03
2022-12-14T04:28:43.051Z,2.00
2022-12-14T04:31:14.110Z,1.99
2022-12-14T04:33:47.280Z,1.98
2022-12-14T04:36:30.424Z,1.95
2022-12-14T04:39:02.573Z,1.95
2022-12-14T04:41:36.328Z,1.94
2022-12-14T04:44:13.511Z,1.93
2022-12-14T04:46:41.789Z,1.94
2022-12-14T04:49:19.400Z,1.92
2022-12-14T04:52:05.185Z,1.92
2022-12-14T04:54:42.578Z,1.91
2022-12-14T04:57:23.940Z,1.92
2022-12-14T04:59:50.920Z,1.92
2022-12-14T05:02:36.225Z,1.91
2022-12-14T05:05:02.782Z,1.91
2022-12-14T05:07:57.394Z,1.93
2022-12-14T05:10:44.771Z,1.94
2022-12-14T05:13:18.598Z,1.95
2022-12-14T05:15:54.334Z,1.97
2022-12-14T05:18:21.244Z,1.99
2022-12-14T05:20:48.216Z,2.00
2022-12-14T05:23:16.025Z,1.99
2022-12-14T05:25:42.667Z,2.00
2022-12-14T05:28:12.797Z,1.99
2022-12-14T05:30:39.781Z,1.99
2022-12-14T05:33:06.325Z,2.01
2022-12-14T05:35:32.857Z,2.03
2022-12-14T05:38:00.086Z,2.04
2022-12-14T05:40:26.704Z,2.06
2022-12-14T05:43:04.634Z,2.08
2022-12-14T05:45:31.188Z,2.10
2022-12-14T05:47:57.684Z,2.12
2022-12-14T05:50:24.300Z,2.13
2022-12-14T05:52:51.983Z,2.14
2022-12-14T05:55:18.578Z,2.13
2022-12-14T05:57:45.123Z,2.14
2022-12-14T06:00:12.121Z,2.16
2022-12-14T06:02:38.683Z,2.16
2022-12-14T06:05:05.624Z,2.17
2022-12-14T06:07:32.204Z,2.17
2022-12-14T06:09:58.694Z,2.18
2022-12-14T06:12:26.224Z,2.19
2022-12-14T06:14:52.762Z,2.18
2022-12-14T06:17:19.302Z,2.17
2022-12-14T06:19:49.756Z,2.15
2022-12-14T06:22:17.478Z,2.14
2022-12-14T06:24:43.984Z,2.15
2022-12-14T06:27:10.565Z,2.15
2022-12-14T06:29:37.165Z,2.16
2022-12-14T06:32:03.695Z,2.18
2022-12-14T06:34:32.872Z,2.17
2022-12-14T06:37:03.304Z,2.15
2022-12-14T06:39:29.945Z,2.14
2022-12-14T06:41:56.942Z,2.14
2022-12-14T06:44:23.485Z,2.13
2022-12-14T06:46:49.988Z,2.12
2022-12-14T06:49:17.227Z,2.10
2022-12-14T06:51:44.073Z,2.11
2022-12-14T06:54:12.165Z,2.10
2022-12-14T06:56:43.000Z,2.10
2022-12-14T06:59:10.053Z,2.10
2022-12-14T07:01:37.960Z,2.07
2022-12-14T07:04:05.809Z,2.05
2022-12-14T07:06:35.568Z,2.04
2022-12-14T07:09:03.927Z,2.04
2022-12-14T07:11:30.970Z,2.03
2022-12-14T07:14:00.604Z,2.04
2022-12-14T07:16:29.330Z,2.05
2022-12-14T07:18:56.491Z,2.05
2022-12-14T07:21:24.136Z,2.06
2022-12-14T07:23:52.450Z,2.06
2022-12-14T07:26:24.637Z,2.07
2022-12-14T07:28:52.503Z,2.07
2022-12-14T07:31:22.107Z,2.07
2022-12-14T07:33:48.759Z,2.07
2022-12-14T07:36:17.963Z,2.05
2022-12-14T07:38:46.444Z,2.03
2022-12-14T07:41:23.012Z,2.03
2022-12-14T07:43:51.007Z,2.00
2022-12-14T07:46:20.049Z,1.96
2022-12-14T07:48:49.320Z,1.92
2022-12-14T07:51:18.663Z,1.88
2022-12-14T07:53:45.557Z,1.84
2022-12-14T07:56:36.036Z,1.82
2022-12-14T07:59:04.709Z,1.81
2022-12-14T08:01:34.448Z,1.79
2022-12-14T08:04:08.241Z,1.77
2022-12-14T08:06:35.991Z,1.75
2022-12-14T08:09:03.004Z,1.73
2022-12-14T08:11:29.578Z,1.71
2022-12-14T08:14:01.046Z,1.70
2022-12-14T08:16:28.426Z,1.68
2022-12-14T08:18:56.562Z,1.67
2022-12-14T08:21:24.068Z,1.64
2022-12-14T08:23:52.846Z,1.63
2022-12-14T08:26:19.708Z,1.65
2022-12-14T08:28:47.628Z,1.63
2022-12-14T08:31:16.796Z,1.63
2022-12-14T08:33:45.243Z,1.61
2022-12-14T08:36:14.623Z,1.59
2022-12-14T08:38:41.995Z,1.58
2022-12-14T08:41:10.871Z,1.56
2022-12-14T08:43:38.010Z,1.54
2022-12-14T08:46:05.432Z,1.52
2022-12-14T08:48:32.200Z,1.50
2022-12-14T08:51:06.560Z,1.47
2022-12-14T08:53:33.926Z,1.48
2022-12-14T08:56:05.618Z,1.49
2022-12-14T08:58:32.363Z,1.49
2022-12-14T09:01:07.137Z,1.48
2022-12-14T09:03:34.201Z,1.48
2022-12-14T09:06:08.360Z,1.46
2022-12-14T09:08:35.755Z,1.44
2022-12-14T09:11:04.512Z,1.43
2022-12-14T09:13:32.605Z,1.42
2022-12-14T09:16:08.392Z,1.43
2022-12-14T09:18:35.220Z,1.44
2022-12-14T09:21:02.835Z,1.45
2022-12-14T09:23:31.904Z,1.45
2022-12-14T09:26:04.936Z,1.45
2022-12-14T09:28:33.629Z,1.44
2022-12-14T09:31:05.215Z,1.45
2022-12-14T09:33:33.170Z,1.47
2022-12-14T09:36:05.717Z,1.48
2022-12-14T09:38:34.968Z,1.50
2022-12-14T09:41:07.410Z,1.50
2022-12-14T09:43:51.336Z,1.51
2022-12-14T09:46:55.572Z,1.53
2022-12-14T09:49:32.107Z,1.54
2022-12-14T09:52:09.345Z,1.56
2022-12-14T09:54:38.377Z,1.59
2022-12-14T09:57:12.191Z,1.63
2022-12-14T09:59:38.889Z,1.69
2022-12-14T10:02:33.637Z,1.73
2022-12-14T10:05:16.260Z,1.82
2022-12-14T10:08:02.932Z,1.91
2022-12-14T10:11:06.337Z,2.04
2022-12-14T10:13:47.890Z,2.15
2022-12-14T10:16:36.979Z,2.28
2022-12-14T10:19:35.036Z,2.43
2022-12-14T10:22:14.086Z,2.56
2022-12-14T10:24:47.415Z,2.67
2022-12-14T10:27:22.816Z,2.78
2022-12-14T10:29:52.095Z,2.90
2022-12-14T10:32:25.776Z,3.06
2022-12-14T10:34:52.468Z,3.17
2022-12-14T10:37:37.663Z,3.27
2022-12-14T10:40:29.302Z,3.38
2022-12-14T10:43:26.589Z,3.52
2022-12-14T10:46:22.681Z,3.64
2022-12-14T10:49:05.311Z,3.76
2022-12-14T10:51:39.096Z,3.88
2022-12-14T10:54:22.865Z,3.98
2022-12-14T10:56:50.578Z,4.11
2022-12-14T10:59:26.422Z,4.19
2022-12-14T11:02:01.484Z,4.26
2022-12-14T11:04:31.092Z,4.33
2022-12-14T11:07:00.068Z,4.39
2022-12-14T11:09:27.549Z,4.47
2022-12-14T11:12:12.885Z,4.55
2022-12-14T11:14:52.162Z,4.63
2022-12-14T11:17:45.260Z,4.69
2022-12-14T11:20:16.961Z,4.76
2022-12-14T11:22:46.525Z,4.83
2022-12-14T11:25:28.612Z,4.86
2022-12-14T11:27:55.417Z,4.94
2022-12-14T11:30:21.929Z,5.03
2022-12-14T11:32:49.300Z,5.07
2022-12-14T11:35:20.317Z,5.14
2022-12-14T11:37:50.879Z,5.22
2022-12-14T11:40:25.224Z,5.30
2022-12-14T11:43:00.372Z,5.38
2022-12-14T11:45:26.835Z,5.43
2022-12-14T11:48:15.279Z,5.50
2022-12-14T11:50:43.145Z,5.56
2022-12-14T11:53:11.963Z,5.65
2022-12-14T11:55:43.636Z,5.70
2022-12-14T11:58:22.875Z,5.73
2022-12-14T12:00:58.566Z,5.77
2022-12-14T12:03:29.853Z,5.82
2022-12-14T12:06:03.354Z,5.88
2022-12-14T12:08:33.484Z,5.92
2022-12-14T12:11:02.922Z,5.94
2022-12-14T12:13:35.282Z,5.94
2022-12-14T12:16:06.509Z,5.94
2022-12-14T12:18:46.904Z,5.93
2022-12-14T12:21:27.996Z,5.95
2022-12-14T12:24:01.425Z,6.03
2022-12-14T12:26:36.963Z,6.08
2022-12-14T12:29:10.171Z,6.06
2022-12-14T12:31:45.803Z,6.09
2022-12-14T12:34:21.949Z,6.10
2022-12-14T12:37:24.224Z,6.14
2022-12-14T12:39:41.265Z,6.20
2022-12-14T12:42:20.667Z,6.23
2022-12-14T12:45:01.563Z,6.30
2022-12-14T12:47:47.360Z,6.35
2022-12-14T12:50:18.103Z,6.38
2022-12-14T12:53:17.073Z,6.34
2022-12-14T12:55:54.236Z,6.41
2022-12-14T12:58:32.181Z,6.45
2022-12-14T13:01:17.662Z,6.51
2022-12-14T13:03:47.853Z,6.54
2022-12-14T13:06:20.763Z,6.57
2022-12-14T13:08:53.508Z,6.56
2022-12-14T13:11:27.054Z,6.56
2022-12-14T13:14:17.344Z,6.57
2022-12-14T13:16:45.809Z,6.56
2022-12-14T13:22:17.013Z,6.48
2022-12-14T13:24:47.259Z,6.42
2022-12-14T13:27:25.620Z,6.40
2022-12-14T13:30:23.306Z,6.33
2022-12-14T13:32:58.672Z,6.26
2022-12-14T13:35:28.373Z,6.16
2022-12-14T13:38:22.773Z,6.11
2022-12-14T13:41:15.562Z,6.10
2022-12-14T13:43:57.152Z,6.05
2022-12-14T13:46:29.296Z,6.00
2022-12-14T13:49:02.952Z,5.99
2022-12-14T13:51:32.606Z,5.94
2022-12-14T13:54:00.988Z,5.90
2022-12-14T13:56:34.939Z,5.87
2022-12-14T13:59:06.200Z,5.84
2022-12-14T14:01:48.224Z,5.79
2022-12-14T14:04:29.673Z,5.75
2022-12-14T14:07:25.262Z,5.71
2022-12-14T14:09:54.876Z,5.70
2022-12-14T14:12:43.856Z,5.66
2022-12-14T14:15:26.203Z,5.65
2022-12-14T14:17:54.554Z,5.59
2022-12-14T14:21:13.316Z,5.53
2022-12-14T14:24:18.103Z,5.49
2022-12-14T14:27:08.485Z,5.41
2022-12-14T14:29:36.746Z,5.36
2022-12-14T14:32:29.384Z,5.29
2022-12-14T14:34:56.080Z,5.26
2022-12-14T14:37:27.266Z,5.22
2022-12-14T14:40:38.408Z,5.15
2022-12-14T14:43:30.135Z,5.13
2022-12-14T14:46:01.992Z,5.05
2022-12-14T14:48:50.385Z,5.00
2022-12-14T14:51:25.259Z,4.93
2022-12-14T14:54:36.983Z,4.88
2022-12-14T14:57:02.876Z,4.84
2022-12-14T14:59:43.787Z,4.76
2022-12-14T15:02:31.628Z,4.72
2022-12-14T15:05:17.502Z,4.68
2022-12-14T15:07:46.722Z,4.64
2022-12-14T15:10:26.704Z,4.59
2022-12-14T15:12:56.860Z,4.56
2022-12-14T15:15:47.587Z,4.47
2022-12-14T15:18:22.526Z,4.42
2022-12-14T15:21:06.251Z,4.35
2022-12-14T15:23:55.097Z,4.29
2022-12-14T15:26:26.877Z,4.26
2022-12-14T15:28:56.601Z,4.22
2022-12-14T15:31:40.047Z,4.16
2022-12-14T15:34:07.840Z,4.12
2022-12-14T15:36:37.887Z,4.07
2022-12-14T15:39:04.690Z,4.03
2022-12-14T15:41:33.229Z,3.98
2022-12-14T15:44:00.705Z,3.93
2022-12-14T15:46:34.989Z,3.88
2022-12-14T15:49:06.965Z,3.81
2022-12-14T15:51:38.059Z,3.74
2022-12-14T15:54:07.099Z,3.69
2022-12-14T15:56:35.333Z,3.64
2022-12-14T15:59:05.155Z,3.58
2022-12-14T16:01:40.469Z,3.53
2022-12-14T16:04:10.452Z,3.46
2022-12-14T16:06:42.759Z,3.45
2022-12-14T16:09:27.365Z,3.38
2022-12-14T16:11:57.252Z,3.32
2022-12-14T16:14:47.023Z,3.22
2022-12-14T16:17:18.122Z,3.18
2022-12-14T16:19:59.393Z,3.13
2022-12-14T16:22:31.164Z,3.06
2022-12-14T16:25:07.937Z,2.97
2022-12-14T16:27:39.456Z,2.90
2022-12-14T16:30:24.404Z,2.82
2022-12-14T16:32:53.551Z,2.76
2022-12-14T16:35:23.497Z,2.69
2022-12-14T16:37:54.212Z,2.63
2022-12-14T16:40:29.625Z,2.57
2022-12-14T16:42:56.115Z,2.49
2022-12-14T16:45:41.385Z,2.43
2022-12-14T16:48:09.085Z,2.36
2022-12-14T16:53:25.200Z,2.25
2022-12-14T16:56:16.412Z,2.17
2022-12-14T16:58:53.164Z,2.10
2022-12-14T17:01:20.708Z,2.02
2022-12-14T17:03:55.411Z,1.96
2022-12-14T17:06:28.852Z,1.91
2022-12-14T17:08:55.431Z,1.89
2022-12-14T17:11:21.891Z,1.85
2022-12-14T17:13:49.683Z,1.83
2022-12-14T17:16:21.045Z,1.76
2022-12-14T17:18:48.141Z,1.75
2022-12-14T17:21:23.647Z,1.74
2022-12-14T17:23:50.606Z,1.76
2022-12-14T17:26:23.715Z,1.80
2022-12-14T17:28:50.823Z,1.83
2022-12-14T17:31:20.100Z,1.84
2022-12-14T17:33:46.865Z,1.81
2022-12-14T17:36:13.393Z,1.78
2022-12-14T17:38:40.595Z,1.74
2022-12-14T17:41:07.432Z,1.61
2022-12-14T17:43:34.543Z,1.44
2022-12-14T17:46:03.083Z,1.24
2022-12-14T17:48:29.686Z,1.10
2022-12-14T17:50:56.354Z,1.01
2022-12-14T17:53:29.104Z,0.94
2022-12-14T17:55:56.426Z,0.89
2022-12-14T17:58:23.008Z,0.89
2022-12-14T18:01:02.752Z,0.92
2022-12-14T18:03:32.122Z,0.92
2022-12-14T18:05:59.548Z,0.94
2022-12-14T18:08:26.972Z,0.93
2022-12-14T18:11:02.106Z,0.87
2022-12-14T18:13:31.754Z,0.81
2022-12-14T18:15:59.971Z,0.78
2022-12-14T18:18:28.203Z,0.76
2022-12-14T18:21:00.626Z,0.75
2022-12-14T18:23:29.726Z,0.72
2022-12-14T18:25:59.476Z,0.69
2022-12-14T18:28:26.336Z,0.67
2022-12-14T18:30:59.099Z,0.64
2022-12-14T18:33:27.938Z,0.63
2022-12-14T18:35:56.463Z,0.63
2022-12-14T18:38:23.887Z,0.61
2022-12-14T18:40:53.136Z,0.52
2022-12-14T18:43:25.575Z,0.43
2022-12-14T18:45:53.444Z,0.38
2022-12-14T18:48:20.553Z,0.36
2022-12-14T18:50:49.628Z,0.35
2022-12-14T18:53:19.168Z,0.35
2022-12-14T18:55:45.838Z,0.36
2022-12-14T18:58:17.589Z,0.34
2022-12-14T19:00:44.866Z,0.27
2022-12-14T19:03:11.671Z,0.23
2022-12-14T19:05:38.521Z,0.18
2022-12-14T19:08:05.292Z,0.11
2022-12-14T19:10:32.969Z,0.06
2022-12-14T19:12:59.484Z,0.04
2022-12-14T19:15:29.309Z,0.03
2022-12-14T19:17:56.296Z,0.01
2022-12-14T19:20:23.690Z,-0.02
2022-12-14T19:22:50.744Z,-0.03
2022-12-14T19:25:19.507Z,-0.07
2022-12-14T19:28:30.197Z,-0.11
2022-12-14T19:30:34.550Z,-0.11
2022-12-14T19:33:01.064Z,-0.14
2022-12-14T19:35:27.966Z,-0.16
2022-12-14T19:37:54.608Z,-0.14
2022-12-14T19:40:21.349Z,-0.12
2022-12-14T19:42:47.934Z,-0.13
2022-12-14T19:45:15.648Z,-0.15
2022-12-14T19:47:43.948Z,-0.17
2022-12-14T19:50:13.396Z,-0.21
2022-12-14T19:52:40.187Z,-0.24
2022-12-14T19:55:07.226Z,-0.26
2022-12-14T19:57:33.726Z,-0.29
2022-12-14T20:00:00.376Z,-0.35
2022-12-14T20:02:27.156Z,-0.45
2022-12-14T20:04:53.963Z,-0.57
2022-12-14T20:07:20.522Z,-0.74
2022-12-14T20:09:47.059Z,-0.90
2022-12-14T20:12:13.817Z,-1.07
2022-12-14T20:14:40.645Z,-1.17
2022-12-14T20:17:08.360Z,-1.25
2022-12-14T20:19:36.249Z,-1.28
2022-12-14T20:22:02.838Z,-1.31
2022-12-14T20:24:29.459Z,-1.33
2022-12-14T20:26:56.152Z,-1.33
2022-12-14T20:29:23.091Z,-1.31
2022-12-14T20:31:49.809Z,-1.32
2022-12-14T20:34:16.435Z,-1.34
2022-12-14T20:36:42.920Z,-1.36
2022-12-14T20:39:10.034Z,-1.39
2022-12-14T20:41:36.835Z,-1.38
2022-12-14T20:44:07.380Z,-1.33
2022-12-14T20:46:36.205Z,-1.29
2022-12-14T20:49:08.163Z,-1.25
2022-12-14T20:51:37.862Z,-1.21
2022-12-14T20:54:06.337Z,-1.16
2022-12-14T20:56:34.744Z,-1.09
2022-12-14T20:59:01.463Z,-1.07
2022-12-14T21:01:28.332Z,-1.06
2022-12-14T21:03:57.603Z,-1.08
2022-12-14T21:06:25.197Z,-1.12
2022-12-14T21:09:10.275Z,-1.10
2022-12-14T21:12:04.277Z,-1.05
2022-12-14T21:14:36.232Z,-0.99
2022-12-14T21:17:04.019Z,-0.95
2022-12-14T21:19:32.125Z,-0.88
2022-12-14T21:21:58.784Z,-0.83
2022-12-14T21:25:00.557Z,-0.77
2022-12-14T21:27:22.194Z,-0.68
2022-12-14T21:29:49.719Z,-0.61
2022-12-14T21:32:17.059Z,-0.56
2022-12-14T21:34:44.253Z,-0.50
2022-12-14T21:37:11.322Z,-0.48
2022-12-14T21:39:38.200Z,-0.48
2022-12-14T21:42:10.623Z,-0.49
2022-12-14T21:44:37.640Z,-0.48
2022-12-14T21:47:07.181Z,-0.46
2022-12-14T21:49:36.734Z,-0.44
2022-12-14T21:52:07.298Z,-0.48
2022-12-14T21:54:36.002Z,-0.55
2022-12-14T21:57:20.982Z,-0.64
2022-12-14T21:59:47.648Z,-0.72
2022-12-14T22:02:14.304Z,-0.73
2022-12-14T22:04:41.342Z,-0.74
2022-12-14T22:07:07.914Z,-0.73
2022-12-14T22:09:34.423Z,-0.71
2022-12-14T22:12:00.974Z,-0.71
2022-12-14T22:14:27.458Z,-0.69
2022-12-14T22:16:54.053Z,-0.68
2022-12-14T22:19:23.134Z,-0.68
2022-12-14T22:21:50.948Z,-0.68
2022-12-14T22:24:18.614Z,-0.67
2022-12-14T22:26:45.510Z,-0.68
2022-12-14T22:29:13.019Z,-0.67
2022-12-14T22:31:39.601Z,-0.63
2022-12-14T22:34:06.945Z,-0.62
2022-12-14T22:36:33.422Z,-0.62
2022-12-14T22:39:00.029Z,-0.63
2022-12-14T22:41:27.436Z,-0.65
2022-12-14T22:43:58.476Z,-0.68
2022-12-14T22:46:26.747Z,-0.73
2022-12-14T22:48:53.879Z,-0.77
2022-12-14T22:51:21.881Z,-0.80
2022-12-14T22:53:49.730Z,-0.85
2022-12-14T22:56:31.172Z,-0.89
2022-12-14T22:59:02.500Z,-0.92
2022-12-14T23:01:29.685Z,-0.94
2022-12-14T23:03:56.772Z,-1.02
2022-12-14T23:06:23.469Z,-1.10
2022-12-14T23:09:08.681Z,-1.19
2022-12-14T23:11:53.723Z,-1.26
2022-12-14T23:14:39.079Z,-1.32
2022-12-14T23:17:28.013Z,-1.34
2022-12-14T23:20:12.906Z,-1.33
2022-12-14T23:22:57.938Z,-1.30
2022-12-14T23:25:42.747Z,-1.31
2022-12-14T23:28:28.049Z,-1.31
2022-12-14T23:31:15.647Z,-1.32
2022-12-14T23:34:01.272Z,-1.35
2022-12-14T23:36:46.634Z,-1.34
2022-12-14T23:39:31.375Z,-1.31
2022-12-14T23:42:16.395Z,-1.27
2022-12-14T23:45:01.267Z,-1.22
2022-12-14T23:47:46.299Z,-1.22
2022-12-14T23:50:34.671Z,-1.25
2022-12-14T23:53:27.681Z,-1.33
2022-12-14T23:56:12.849Z,-1.39
2022-12-14T23:58:57.548Z,-1.42
